createdAt,value
2022-10-21T00:01:08.702Z,13.60
2022-10-21T00:03:37.484Z,13.70
2022-10-21T00:06:07.840Z,13.70
2022-10-21T00:08:36.586Z,13.80
2022-10-21T00:11:07.127Z,13.80
2022-10-21T00:13:39.070Z,13.90
2022-10-21T00:16:09.833Z,13.90
2022-10-21T00:18:39.823Z,14.10
2022-10-21T00:21:11.170Z,14.00
2022-10-21T00:23:39.410Z,14.00
2022-10-21T00:26:09.223Z,14.00
2022-10-21T00:28:37.597Z,14.00
2022-10-21T00:31:07.633Z,14.00
2022-10-21T00:33:36.497Z,14.10
2022-10-21T00:36:07.266Z,14.10
2022-10-21T00:38:37.481Z,14.10
2022-10-21T00:41:05.669Z,14.10
2022-10-21T00:43:33.824Z,14.00
2022-10-21T00:46:06.157Z,14.00
2022-10-21T00:48:36.917Z,14.00
2022-10-21T00:51:07.839Z,14.10
2022-10-21T00:53:39.656Z,14.10
2022-10-21T00:56:15.497Z,14.10
2022-10-21T00:58:46.877Z,14.10
2022-10-21T01:01:19.182Z,14.10
2022-10-21T01:03:50.523Z,14.10
2022-10-21T01:06:25.704Z,14.00
2022-10-21T01:08:56.457Z,14.10
2022-10-21T01:11:27.014Z,14.00
2022-10-21T01:14:13.159Z,14.00
2022-10-21T01:16:48.416Z,14.00
2022-10-21T01:19:53.429Z,14.00
2022-10-21T01:22:37.813Z,14.00
2022-10-21T01:25:25.519Z,14.00
2022-10-21T01:28:00.708Z,14.00
2022-10-21T01:30:37.250Z,13.90
2022-10-21T01:33:24.849Z,13.90
2022-10-21T01:35:58.752Z,13.90
2022-10-21T01:38:34.383Z,13.80
2022-10-21T01:41:09.722Z,13.80
2022-10-21T01:43:45.727Z,13.80
2022-10-21T01:46:20.318Z,13.80
2022-10-21T01:48:53.687Z,13.80
2022-10-21T01:54:01.698Z,13.70
2022-10-21T01:56:31.490Z,13.60
2022-10-21T01:59:00.518Z,13.50
2022-10-21T02:01:30.573Z,13.50
2022-10-21T02:04:02.127Z,13.50
2022-10-21T02:06:30.428Z,13.30
2022-10-21T02:08:58.812Z,13.30
2022-10-21T02:11:29.703Z,13.20
2022-10-21T02:14:04.011Z,13.20
2022-10-21T02:16:38.558Z,13.10
2022-10-21T02:19:12.406Z,13.10
2022-10-21T02:21:41.055Z,13.20
2022-10-21T02:24:16.955Z,13.20
2022-10-21T02:26:45.238Z,13.10
2022-10-21T02:29:14.815Z,13.00
2022-10-21T02:31:59.590Z,12.90
2022-10-21T02:34:37.587Z,12.80
2022-10-21T02:37:14.316Z,12.80
2022-10-21T02:39:48.953Z,12.70
2022-10-21T02:42:21.440Z,12.70
2022-10-21T02:44:49.793Z,12.60
2022-10-21T02:47:26.947Z,12.60
2022-10-21T02:49:55.122Z,12.60
2022-10-21T02:52:23.390Z,12.50
2022-10-21T02:54:51.540Z,12.40
2022-10-21T02:57:19.701Z,12.30
2022-10-21T02:59:48.030Z,12.30
2022-10-21T03:02:16.197Z,12.20
2022-10-21T03:04:45.721Z,12.30
2022-10-21T03:07:13.932Z,12.40
2022-10-21T03:09:42.227Z,12.30
2022-10-21T03:12:10.419Z,12.20
2022-10-21T03:14:39.204Z,12.20
2022-10-21T03:17:07.515Z,12.20
2022-10-21T03:19:35.701Z,12.10
2022-10-21T03:22:06.153Z,12.10
2022-10-21T03:24:34.361Z,12.10
2022-10-21T03:27:02.527Z,12.00
2022-10-21T03:29:30.989Z,12.00
2022-10-21T03:31:59.192Z,12.00
2022-10-21T03:34:27.422Z,11.90
2022-10-21T03:36:55.569Z,11.80
2022-10-21T03:39:25.239Z,11.80
2022-10-21T03:41:53.426Z,11.80
2022-10-21T03:44:21.551Z,11.80
2022-10-21T03:46:51.946Z,11.70
2022-10-21T03:49:21.593Z,11.60
2022-10-21T03:51:50.626Z,11.60
2022-10-21T03:54:19.491Z,11.70
2022-10-21T03:56:49.159Z,11.70
2022-10-21T03:59:18.023Z,11.60
2022-10-21T04:01:46.471Z,11.60
2022-10-21T04:04:14.902Z,11.50
2022-10-21T04:06:43.105Z,11.50
2022-10-21T04:09:11.463Z,11.30
2022-10-21T04:11:39.674Z,11.30
2022-10-21T04:14:11.642Z,11.30
2022-10-21T04:16:42.957Z,11.30
2022-10-21T04:19:17.354Z,11.40
2022-10-21T04:21:45.787Z,11.30
2022-10-21T04:24:14.339Z,11.40
2022-10-21T04:26:42.958Z,11.20
2022-10-21T04:29:12.688Z,11.20
2022-10-21T04:31:40.888Z,11.20
2022-10-21T04:34:09.105Z,11.20
2022-10-21T04:36:37.288Z,11.20
2022-10-21T04:39:05.798Z,11.20
2022-10-21T04:41:34.021Z,11.20
2022-10-21T04:44:03.056Z,11.20
2022-10-21T04:46:32.885Z,11.10
2022-10-21T04:49:01.030Z,11.10
2022-10-21T04:51:29.191Z,11.10
2022-10-21T04:53:57.518Z,11.10
2022-10-21T04:56:25.613Z,11.00
2022-10-21T04:58:53.774Z,11.00
2022-10-21T05:01:22.132Z,11.10
2022-10-21T05:03:51.796Z,11.00
2022-10-21T05:06:19.997Z,11.00
2022-10-21T05:08:48.162Z,11.00
2022-10-21T05:11:16.435Z,11.00
2022-10-21T05:13:44.568Z,11.00
2022-10-21T05:16:12.811Z,11.00
2022-10-21T05:18:40.995Z,11.00
2022-10-21T05:21:10.577Z,11.00
2022-10-21T05:23:38.776Z,11.00
2022-10-21T05:26:07.651Z,11.10
2022-10-21T05:28:35.828Z,11.10
2022-10-21T05:31:04.082Z,11.10
2022-10-21T05:33:32.220Z,11.10
2022-10-21T05:36:02.018Z,11.00
2022-10-21T05:38:32.087Z,11.00
2022-10-21T05:41:00.862Z,11.00
2022-10-21T05:43:29.307Z,11.00
2022-10-21T05:45:57.825Z,11.00
2022-10-21T05:48:26.322Z,10.90
2022-10-21T05:50:55.914Z,11.00
2022-10-21T05:53:25.362Z,10.90
2022-10-21T05:55:59.257Z,10.90
2022-10-21T05:58:28.798Z,10.90
2022-10-21T06:00:59.122Z,10.90
2022-10-21T06:03:30.446Z,10.80
2022-10-21T06:06:00.368Z,10.90
2022-10-21T06:08:29.407Z,10.90
2022-10-21T06:11:06.910Z,10.90
2022-10-21T06:13:35.506Z,10.90
2022-10-21T06:18:37.359Z,10.90
2022-10-21T06:21:06.251Z,10.90
2022-10-21T06:23:34.568Z,10.90
2022-10-21T06:26:06.156Z,10.90
2022-10-21T06:28:37.181Z,10.90
2022-10-21T06:31:06.037Z,10.90
2022-10-21T06:33:34.991Z,11.00
2022-10-21T06:36:03.147Z,11.00
2022-10-21T06:38:32.295Z,11.00
2022-10-21T06:41:02.925Z,11.10
2022-10-21T06:43:32.531Z,11.10
2022-10-21T06:46:02.207Z,11.00
2022-10-21T06:48:31.069Z,11.00
2022-10-21T06:50:59.983Z,11.10
2022-10-21T06:53:28.419Z,11.10
2022-10-21T06:56:04.608Z,11.10
2022-10-21T06:58:34.216Z,11.20
2022-10-21T07:01:16.546Z,11.20
2022-10-21T07:03:56.467Z,11.30
2022-10-21T07:06:24.792Z,11.30
2022-10-21T07:09:00.212Z,11.40
2022-10-21T07:11:29.247Z,11.50
2022-10-21T07:14:01.086Z,11.60
2022-10-21T07:16:32.687Z,11.80
2022-10-21T07:19:00.906Z,11.70
2022-10-21T07:21:31.731Z,11.80
2022-10-21T07:24:00.751Z,11.80
2022-10-21T07:26:30.996Z,11.90
2022-10-21T07:29:01.313Z,11.90
2022-10-21T07:31:33.148Z,12.00
2022-10-21T07:36:38.517Z,12.10
2022-10-21T07:39:11.928Z,12.30
2022-10-21T07:41:42.545Z,12.30
2022-10-21T07:44:12.590Z,12.30
2022-10-21T07:46:43.418Z,12.40
2022-10-21T07:49:12.626Z,12.50
2022-10-21T07:51:41.666Z,12.60
2022-10-21T07:54:10.214Z,12.60
2022-10-21T07:56:41.299Z,12.70
2022-10-21T07:59:13.062Z,12.80
2022-10-21T08:01:44.415Z,12.80
2022-10-21T08:04:14.263Z,12.80
2022-10-21T08:06:42.755Z,12.80
2022-10-21T08:09:11.053Z,12.90
2022-10-21T08:11:39.446Z,12.90
2022-10-21T08:14:09.190Z,12.90
2022-10-21T08:16:39.833Z,12.90
2022-10-21T08:19:08.901Z,13.00
2022-10-21T08:21:38.868Z,13.10
2022-10-21T08:24:07.587Z,13.10
2022-10-21T08:26:35.971Z,13.10
2022-10-21T08:29:05.285Z,13.10
2022-10-21T08:31:33.527Z,13.10
2022-10-21T08:34:03.109Z,13.20
2022-10-21T08:36:31.450Z,13.20
2022-10-21T08:38:59.940Z,13.30
2022-10-21T08:41:47.737Z,13.30
2022-10-21T08:44:27.312Z,13.40
2022-10-21T08:46:59.998Z,13.50
2022-10-21T08:49:37.000Z,13.50
2022-10-21T08:52:08.882Z,13.60
2022-10-21T08:54:45.103Z,13.60
2022-10-21T08:57:13.750Z,13.60
2022-10-21T08:59:42.842Z,13.70
2022-10-21T09:02:28.441Z,13.70
2022-10-21T09:05:18.562Z,13.70
2022-10-21T09:07:56.486Z,13.80
2022-10-21T09:10:36.587Z,13.80
2022-10-21T09:13:13.254Z,13.80
2022-10-21T09:15:56.703Z,13.80
2022-10-21T09:18:39.705Z,13.80
2022-10-21T09:21:19.545Z,13.80
2022-10-21T09:23:59.574Z,13.90
2022-10-21T09:26:42.601Z,13.90
2022-10-21T09:29:25.308Z,13.90
2022-10-21T09:31:59.878Z,13.90
2022-10-21T09:34:41.931Z,13.80
2022-10-21T09:37:21.736Z,13.80
2022-10-21T09:39:59.170Z,13.90
2022-10-21T09:42:46.292Z,14.00
2022-10-21T09:45:23.998Z,14.10
2022-10-21T09:47:57.892Z,14.10
2022-10-21T09:50:27.878Z,14.20
2022-10-21T09:53:08.822Z,14.20
2022-10-21T09:55:41.294Z,14.30
2022-10-21T09:58:24.393Z,14.30
2022-10-21T10:00:52.866Z,14.40
2022-10-21T10:03:32.692Z,14.50
2022-10-21T10:06:02.189Z,14.50
2022-10-21T10:08:38.105Z,14.50
2022-10-21T10:11:19.153Z,14.50
2022-10-21T10:13:48.903Z,14.60
2022-10-21T10:16:29.884Z,14.50
2022-10-21T10:19:17.127Z,14.50
2022-10-21T10:21:45.635Z,14.50
2022-10-21T10:24:22.390Z,14.50
2022-10-21T10:26:50.798Z,14.50
2022-10-21T10:29:26.728Z,14.40
2022-10-21T10:31:57.554Z,14.50
2022-10-21T10:34:30.696Z,14.50
2022-10-21T10:37:04.233Z,14.60
2022-10-21T10:39:37.969Z,14.60
2022-10-21T10:42:06.471Z,14.50
2022-10-21T10:44:39.334Z,14.60
2022-10-21T10:47:10.274Z,14.60
2022-10-21T10:49:43.779Z,14.70
2022-10-21T10:52:24.254Z,14.80
2022-10-21T10:55:19.110Z,14.80
2022-10-21T10:58:06.168Z,14.90
2022-10-21T11:00:44.756Z,15.00
2022-10-21T11:03:23.929Z,15.00
2022-10-21T11:05:58.984Z,15.00
2022-10-21T11:08:33.987Z,15.10
2022-10-21T11:11:07.838Z,15.10
2022-10-21T11:13:41.230Z,15.10
2022-10-21T11:16:29.533Z,15.10
2022-10-21T11:19:04.975Z,15.10
2022-10-21T11:21:44.828Z,15.00
2022-10-21T11:24:37.836Z,15.00
2022-10-21T11:27:19.192Z,15.00
2022-10-21T11:29:59.355Z,15.00
2022-10-21T11:32:37.243Z,14.90
2022-10-21T11:35:18.998Z,14.90
2022-10-21T11:37:57.050Z,14.90
2022-10-21T11:40:33.895Z,14.90
2022-10-21T11:43:14.342Z,14.90
2022-10-21T11:45:53.857Z,14.90
2022-10-21T11:48:34.517Z,14.90
2022-10-21T11:51:14.245Z,14.90
2022-10-21T11:53:59.579Z,14.90
2022-10-21T11:56:39.810Z,15.00
2022-10-21T12:02:10.271Z,15.00
2022-10-21T12:04:47.760Z,15.00
2022-10-21T12:07:28.628Z,15.00
2022-10-21T12:10:00.765Z,15.00
2022-10-21T12:12:33.259Z,15.10
2022-10-21T12:15:04.539Z,15.10
2022-10-21T12:20:22.793Z,15.30
2022-10-21T12:22:56.989Z,15.40
2022-10-21T12:25:32.741Z,15.50
2022-10-21T12:28:06.515Z,15.60
2022-10-21T12:30:41.688Z,15.70
2022-10-21T12:33:18.192Z,15.70
2022-10-21T12:35:50.509Z,15.80
2022-10-21T12:38:26.170Z,15.90
2022-10-21T12:41:22.652Z,15.90
2022-10-21T12:43:54.858Z,15.90
2022-10-21T12:46:30.325Z,15.90
2022-10-21T12:49:00.063Z,16.00
2022-10-21T12:51:31.032Z,16.00
2022-10-21T12:54:08.121Z,16.00
2022-10-21T12:56:43.593Z,16.10
2022-10-21T12:59:27.741Z,16.20
2022-10-21T13:02:27.174Z,16.40
2022-10-21T13:04:57.656Z,16.40
2022-10-21T13:07:37.348Z,16.50
2022-10-21T13:10:36.037Z,16.50
2022-10-21T13:13:33.996Z,16.50
2022-10-21T13:16:18.582Z,16.50
2022-10-21T13:18:59.391Z,16.50
2022-10-21T13:21:43.280Z,16.60
2022-10-21T13:24:24.463Z,16.70
2022-10-21T13:26:55.706Z,16.60
2022-10-21T13:29:42.277Z,16.60
2022-10-21T13:32:28.028Z,16.70
2022-10-21T13:35:01.662Z,16.80
2022-10-21T13:37:33.887Z,16.80
2022-10-21T13:40:04.583Z,16.90
2022-10-21T13:42:36.686Z,16.90
2022-10-21T13:45:11.979Z,16.90
2022-10-21T13:47:41.329Z,16.90
2022-10-21T13:50:18.216Z,16.90
2022-10-21T13:52:46.586Z,16.80
2022-10-21T13:55:23.431Z,16.80
2022-10-21T13:57:53.301Z,16.70
2022-10-21T14:00:23.652Z,16.70
2022-10-21T14:02:53.617Z,16.60
2022-10-21T14:05:32.086Z,16.60
2022-10-21T14:08:00.777Z,16.60
2022-10-21T14:10:30.612Z,16.60
2022-10-21T14:13:00.798Z,16.50
2022-10-21T14:15:40.712Z,16.50
2022-10-21T14:18:09.163Z,16.50
2022-10-21T14:20:40.441Z,16.50
2022-10-21T14:23:18.859Z,16.50
2022-10-21T14:25:48.908Z,16.60
2022-10-21T14:28:18.932Z,16.60
2022-10-21T14:30:47.537Z,16.60
2022-10-21T14:33:22.088Z,16.60
2022-10-21T14:38:51.546Z,16.70
2022-10-21T14:41:23.335Z,16.70
2022-10-21T14:43:53.735Z,16.70
2022-10-21T14:46:22.529Z,16.70
2022-10-21T14:48:54.791Z,16.70
2022-10-21T14:51:24.090Z,16.70
2022-10-21T14:53:57.312Z,16.70
2022-10-21T14:56:30.757Z,16.70
2022-10-21T14:59:00.516Z,16.70
2022-10-21T15:01:30.289Z,16.80
2022-10-21T15:04:00.591Z,16.80
2022-10-21T15:06:30.647Z,16.80
2022-10-21T15:09:23.169Z,16.70
2022-10-21T15:11:51.348Z,16.60
2022-10-21T15:14:24.013Z,16.50
2022-10-21T15:16:55.292Z,16.40
2022-10-21T15:19:25.982Z,16.30
2022-10-21T15:21:57.809Z,16.20
2022-10-21T15:24:37.889Z,16.10
2022-10-21T15:27:06.564Z,16.10
2022-10-21T15:29:37.686Z,16.00
2022-10-21T15:32:07.300Z,16.00
2022-10-21T15:34:35.555Z,16.00
2022-10-21T15:37:04.130Z,16.00
2022-10-21T15:39:33.690Z,16.00
2022-10-21T15:42:02.393Z,16.10
2022-10-21T15:44:32.333Z,16.10
2022-10-21T15:47:02.793Z,16.10
2022-10-21T15:49:36.377Z,16.10
2022-10-21T15:52:05.136Z,16.10
2022-10-21T15:54:35.311Z,16.10
2022-10-21T15:57:06.668Z,16.10
2022-10-21T15:59:35.505Z,16.00
2022-10-21T16:04:36.794Z,15.90
2022-10-21T16:07:15.851Z,15.80
2022-10-21T16:09:45.395Z,15.70
2022-10-21T16:12:14.390Z,15.60
2022-10-21T16:14:42.561Z,15.60
2022-10-21T16:17:13.280Z,15.60
2022-10-21T16:19:41.880Z,15.60
2022-10-21T16:22:14.383Z,15.50
2022-10-21T16:24:42.571Z,15.50
2022-10-21T16:27:13.885Z,15.50
2022-10-21T16:29:43.479Z,15.40
2022-10-21T16:32:12.984Z,15.40
2022-10-21T16:34:41.435Z,15.30
2022-10-21T16:37:20.379Z,15.30
2022-10-21T16:39:48.566Z,15.30
2022-10-21T16:42:18.233Z,15.30
2022-10-21T16:44:46.775Z,15.20
2022-10-21T16:47:18.978Z,15.20
2022-10-21T16:49:47.949Z,15.20
2022-10-21T16:52:17.432Z,15.10
2022-10-21T16:54:48.624Z,15.00
2022-10-21T16:57:18.462Z,15.00
2022-10-21T16:59:46.677Z,14.90
2022-10-21T17:02:17.125Z,15.00
2022-10-21T17:04:47.065Z,14.90
2022-10-21T17:07:15.426Z,14.90
2022-10-21T17:09:43.545Z,14.90
2022-10-21T17:12:12.303Z,14.80
2022-10-21T17:14:41.908Z,14.70
2022-10-21T17:17:10.814Z,14.70
2022-10-21T17:19:39.017Z,14.60
2022-10-21T17:22:07.396Z,14.70
2022-10-21T17:24:35.577Z,14.60
2022-10-21T17:27:03.774Z,14.50
2022-10-21T17:29:31.870Z,14.50
2022-10-21T17:32:02.967Z,14.40
2022-10-21T17:34:33.268Z,14.40
2022-10-21T17:37:01.490Z,14.30
2022-10-21T17:39:30.080Z,14.20
2022-10-21T17:41:58.354Z,14.10
2022-10-21T17:44:26.556Z,14.10
2022-10-21T17:46:55.351Z,14.00
2022-10-21T17:49:26.262Z,13.90
2022-10-21T17:51:54.440Z,13.90
2022-10-21T17:54:26.587Z,13.80
2022-10-21T17:56:57.713Z,13.80
2022-10-21T17:59:26.760Z,13.70
2022-10-21T18:01:54.846Z,13.70
2022-10-21T18:04:24.354Z,13.70
2022-10-21T18:06:52.516Z,13.60
2022-10-21T18:09:20.768Z,13.60
2022-10-21T18:11:49.007Z,13.60
2022-10-21T18:14:17.164Z,13.60
2022-10-21T18:16:45.398Z,13.50
2022-10-21T18:19:13.965Z,13.50
2022-10-21T18:21:43.481Z,13.40
2022-10-21T18:24:12.763Z,13.40
2022-10-21T18:26:41.177Z,13.40
2022-10-21T18:29:09.429Z,13.30
2022-10-21T18:31:38.528Z,13.40
2022-10-21T18:34:09.195Z,13.30
2022-10-21T18:36:37.912Z,13.30
2022-10-21T18:39:08.079Z,13.20
2022-10-21T18:41:36.663Z,13.20
2022-10-21T18:44:08.473Z,13.20
2022-10-21T18:46:37.503Z,13.10
2022-10-21T18:49:07.431Z,13.10
2022-10-21T18:51:35.747Z,13.10
2022-10-21T18:54:04.023Z,13.00
2022-10-21T18:56:33.629Z,13.00
2022-10-21T18:59:01.796Z,13.00
2022-10-21T19:01:30.107Z,13.00
2022-10-21T19:03:58.481Z,13.00
2022-10-21T19:06:37.075Z,13.00
2022-10-21T19:09:09.060Z,12.90
2022-10-21T19:11:38.699Z,12.90
2022-10-21T19:14:09.728Z,12.80
2022-10-21T19:16:41.235Z,12.80
2022-10-21T19:19:09.748Z,12.80
2022-10-21T19:21:38.029Z,12.70
2022-10-21T19:24:06.886Z,12.70
2022-10-21T19:26:37.795Z,12.60
2022-10-21T19:29:09.071Z,12.60
2022-10-21T19:31:38.569Z,12.60
2022-10-21T19:34:07.070Z,12.60
2022-10-21T19:36:35.536Z,12.70
2022-10-21T19:39:03.715Z,12.70
2022-10-21T19:41:32.278Z,12.70
2022-10-21T19:44:00.657Z,12.70
2022-10-21T19:46:32.446Z,12.70
2022-10-21T19:49:02.321Z,12.70
2022-10-21T19:51:30.601Z,12.80
2022-10-21T19:53:59.135Z,12.70
2022-10-21T19:56:31.960Z,12.70
2022-10-21T19:59:02.594Z,12.70
2022-10-21T20:01:34.346Z,12.70
2022-10-21T20:04:03.650Z,12.70
2022-10-21T20:06:33.337Z,12.60
2022-10-21T20:09:03.694Z,12.60
2022-10-21T20:11:32.037Z,12.70
2022-10-21T20:14:00.928Z,12.70
2022-10-21T20:16:30.945Z,12.70
2022-10-21T20:19:01.934Z,12.70
2022-10-21T20:21:31.755Z,12.70
2022-10-21T20:24:00.602Z,12.70
2022-10-21T20:26:30.706Z,12.70
2022-10-21T20:29:00.541Z,12.70
2022-10-21T20:31:29.535Z,12.70
2022-10-21T20:33:58.226Z,12.70
2022-10-21T20:36:29.743Z,12.70
2022-10-21T20:38:59.055Z,12.70
2022-10-21T20:41:31.159Z,12.60
2022-10-21T20:43:59.386Z,12.60
2022-10-21T20:46:29.431Z,12.60
2022-10-21T20:48:57.605Z,12.50
2022-10-21T20:51:29.813Z,12.50
2022-10-21T20:54:00.775Z,12.70
2022-10-21T20:56:30.226Z,12.80
2022-10-21T20:58:59.101Z,12.70
2022-10-21T21:01:29.080Z,12.70
2022-10-21T21:03:59.977Z,12.50
2022-10-21T21:06:29.943Z,12.50
2022-10-21T21:09:33.206Z,12.40
2022-10-21T21:11:46.502Z,12.50
2022-10-21T21:14:15.778Z,12.40
2022-10-21T21:16:43.975Z,12.40
2022-10-21T21:19:13.891Z,12.40
2022-10-21T21:21:43.515Z,12.40
2022-10-21T21:24:11.732Z,12.30
2022-10-21T21:26:41.345Z,12.30
2022-10-21T21:29:10.270Z,12.30
2022-10-21T21:31:39.609Z,12.20
2022-10-21T21:34:08.479Z,12.20
2022-10-21T21:36:37.469Z,12.20
2022-10-21T21:39:08.803Z,12.10
2022-10-21T21:41:37.663Z,12.10
2022-10-21T21:44:07.044Z,12.10
2022-10-21T21:46:35.248Z,12.00
2022-10-21T21:49:06.223Z,12.00
2022-10-21T21:51:35.720Z,12.00
2022-10-21T21:54:05.107Z,12.00
2022-10-21T21:56:35.707Z,12.00
2022-10-21T21:59:03.911Z,12.00
2022-10-21T22:01:32.154Z,11.90
2022-10-21T22:04:01.092Z,11.90
2022-10-21T22:06:31.490Z,11.90
2022-10-21T22:09:00.693Z,11.90
2022-10-21T22:11:31.644Z,11.80
2022-10-21T22:14:01.728Z,11.80
2022-10-21T22:16:31.062Z,11.80
2022-10-21T22:19:01.802Z,11.80
2022-10-21T22:21:31.491Z,11.80
2022-10-21T22:24:00.502Z,11.70
2022-10-21T22:26:29.849Z,11.70
2022-10-21T22:29:00.192Z,11.60
2022-10-21T22:31:30.519Z,11.60
2022-10-21T22:34:01.021Z,11.60
2022-10-21T22:36:29.932Z,11.60
2022-10-21T22:38:58.371Z,11.50
2022-10-21T22:41:28.528Z,11.50
2022-10-21T22:43:56.725Z,11.50
2022-10-21T22:46:33.921Z,11.50
2022-10-21T22:49:04.158Z,11.60
2022-10-21T22:51:32.525Z,11.60
2022-10-21T22:54:01.188Z,11.70
2022-10-21T22:56:30.074Z,11.50
2022-10-21T22:58:58.586Z,11.50
2022-10-21T23:01:30.439Z,11.40
2022-10-21T23:04:02.751Z,11.40
2022-10-21T23:06:31.481Z,11.40
2022-10-21T23:09:00.061Z,11.40
2022-10-21T23:11:28.657Z,11.40
2022-10-21T23:14:03.282Z,11.40
2022-10-21T23:16:37.722Z,11.40
2022-10-21T23:19:06.768Z,11.40
2022-10-21T23:21:35.045Z,11.30
2022-10-21T23:24:03.988Z,11.30
2022-10-21T23:26:32.190Z,11.30
2022-10-21T23:29:00.481Z,11.30
2022-10-21T23:31:28.837Z,11.30
2022-10-21T23:33:58.376Z,11.30
2022-10-21T23:36:26.569Z,11.30
2022-10-21T23:38:58.117Z,11.30
2022-10-21T23:41:26.473Z,11.20
2022-10-21T23:43:54.677Z,11.20
2022-10-21T23:46:23.095Z,11.30
2022-10-21T23:48:51.537Z,11.30
2022-10-21T23:51:21.442Z,11.30
2022-10-21T23:53:49.693Z,11.30
2022-10-21T23:56:17.967Z,11.30
2022-10-21T23:58:46.266Z,11.30
